Time;durP1;ratioP1;P1;durP2;ratioP2;P2;SDS_P1;SDS_P2;PMS_P1;PMS_P2;Temp;Humidity;BMP_temperature;BMP_pressure;BME280_temperature;BME280_humidity;BME280_pressure;Samples;Min_cycle;Max_cycle;Signal;HPM_P1;HPM_P2
2023/01/30 07:36:21;;;;;;;8.35;4.93;;;;;;;;;;10578571;28;20024;-81
2023/01/30 07:41:49;;;;;;;9.50;5.22;;;;;;;;;;10557107;28;20242;-81
2023/01/30 07:53:29;;;;;;;9.88;3.83;;;;;;;;;;10543663;28;20109;-82
2023/01/30 07:58:44;;;;;;;15.50;6.43;;;;;;;;;;10585085;28;20028;-82
2023/01/30 08:04:29;;;;;;;8.43;2.88;;;;;;;;;;10539277;28;20051;-80
2023/01/30 08:09:52;;;;;;;9.52;3.00;;;;;;;;;;10529235;28;20036;-81
2023/01/30 08:15:02;;;;;;;7.43;4.13;;;;;;;;;;10519889;28;20040;-79
2023/01/30 08:20:04;;;;;;;6.20;2.80;;;;;;;;;;10533805;28;20039;-81
2023/01/30 08:25:05;;;;;;;10.40;4.10;;;;;;;;;;10533831;28;20047;-81
2023/01/30 08:30:06;;;;;;;;;;;;;;;;;;10533944;28;20039;-80
2023/01/30 08:35:10;;;;;;;9.48;3.38;;;;;;;;;;10540838;28;19904;-80
2023/01/30 08:40:12;;;;;;;10.60;4.43;;;;;;;;;;10539233;28;20119;-81
2023/01/30 08:45:13;;;;;;;8.60;3.60;;;;;;;;;;10524576;28;20024;-82
2023/01/30 08:50:14;;;;;;;9.20;3.28;;;;;;;;;;10539358;28;20020;-80
2023/01/30 08:55:16;;;;;;;10.57;4.35;;;;;;;;;;10539447;28;20027;-81
2023/01/30 09:00:18;;;;;;;13.85;6.68;;;;;;;;;;10535408;28;20032;-80
2023/01/30 09:05:19;;;;;;;;;;;;;;;;;;10534330;28;20048;-80
2023/01/30 09:10:21;;;;;;;14.73;5.78;;;;;;;;;;10552148;28;19912;-79
2023/01/30 09:15:22;;;;;;;13.23;4.28;;;;;;;;;;10554079;28;20378;-80
2023/01/30 09:20:24;;;;;;;13.57;6.20;;;;;;;;;;10534586;28;20024;-80
2023/01/30 09:25:25;;;;;;;9.02;5.20;;;;;;;;;;10530563;28;20115;-79
2023/01/30 09:30:26;;;;;;;12.52;4.55;;;;;;;;;;10531418;28;20128;-80
2023/01/30 09:35:27;;;;;;;9.88;3.42;;;;;;;;;;10529135;28;20039;-81
2023/01/30 09:40:30;;;;;;;12.63;3.88;;;;;;;;;;10549309;28;20084;-81
2023/01/30 09:45:31;;;;;;;14.93;6.30;;;;;;;;;;10533397;28;20454;-80
2023/01/30 09:50:32;;;;;;;9.82;3.63;;;;;;;;;;10549068;28;20056;-79
2023/01/30 09:55:36;;;;;;;13.45;4.47;;;;;;;;;;10531483;28;20023;-80
2023/01/30 10:00:40;;;;;;;12.85;3.38;;;;;;;;;;10530997;28;20031;-80
2023/01/30 10:05:44;;;;;;;9.52;3.30;;;;;;;;;;10533023;28;20434;-80
2023/01/30 10:10:49;;;;;;;10.57;3.38;;;;;;;;;;10531778;28;20035;-80
2023/01/30 10:15:50;;;;;;;13.45;3.40;;;;;;;;;;10534170;28;20462;-80
2023/01/30 10:20:54;;;;;;;12.52;4.13;;;;;;;;;;10536801;28;20039;-79
2023/01/30 10:25:58;;;;;;;12.88;2.92;;;;;;;;;;10531683;28;20043;-81
2023/01/30 10:31:10;;;;;;;9.85;3.15;;;;;;;;;;10544804;28;20034;-83
2023/01/30 10:36:13;;;;;;;13.93;3.53;;;;;;;;;;10542150;28;20114;-81
2023/01/30 10:41:14;;;;;;;10.68;2.85;;;;;;;;;;10538988;28;20020;-83
2023/01/30 10:46:31;;;;;;;11.60;3.15;;;;;;;;;;10552944;28;20039;-80
2023/01/30 10:51:35;;;;;;;12.30;3.28;;;;;;;;;;10555361;28;20107;-81
2023/01/30 10:56:47;;;;;;;8.05;2.60;;;;;;;;;;10537166;28;20123;-82
2023/01/30 11:01:53;;;;;;;12.52;3.10;;;;;;;;;;10532235;28;20032;-80
2023/01/30 11:06:55;;;;;;;12.40;2.88;;;;;;;;;;10534745;28;20107;-82
2023/01/30 11:11:59;;;;;;;13.07;3.10;;;;;;;;;;10538462;28;20466;-81
2023/01/30 11:17:01;;;;;;;10.68;3.03;;;;;;;;;;10556495;28;20058;-81
2023/01/30 11:22:04;;;;;;;9.75;2.78;;;;;;;;;;10534942;28;20028;-81
2023/01/30 11:27:44;;;;;;;8.93;2.30;;;;;;;;;;10535278;28;20120;-81
2023/01/30 11:32:47;;;;;;;16.35;2.95;;;;;;;;;;10327995;28;20053;-82
2023/01/30 11:37:50;;;;;;;11.68;2.63;;;;;;;;;;10496114;28;20165;-80
2023/01/30 11:42:52;;;;;;;10.57;2.28;;;;;;;;;;10539125;28;20074;-81
2023/01/30 11:47:55;;;;;;;7.25;2.33;;;;;;;;;;10561672;28;20033;-81
2023/01/30 11:53:00;;;;;;;11.05;2.58;;;;;;;;;;10561657;28;20119;-81
2023/01/30 11:58:02;;;;;;;12.32;2.88;;;;;;;;;;10541457;28;20024;-82
2023/01/30 12:03:05;;;;;;;11.05;2.60;;;;;;;;;;10540694;28;20123;-81
2023/01/30 12:08:26;;;;;;;8.77;2.90;;;;;;;;;;10540918;28;20036;-81
2023/01/30 12:13:42;;;;;;;10.27;2.80;;;;;;;;;;10538259;28;20068;-82
2023/01/30 12:18:47;;;;;;;8.55;2.00;;;;;;;;;;10541597;28;20031;-81
2023/01/30 12:23:56;;;;;;;9.43;2.17;;;;;;;;;;10557962;28;20039;-81
2023/01/30 12:29:15;;;;;;;11.43;2.60;;;;;;;;;;10558178;28;20031;-81
2023/01/30 12:34:16;;;;;;;12.35;2.42;;;;;;;;;;10537546;28;20027;-80
2023/01/30 12:39:36;;;;;;;11.00;2.70;;;;;;;;;;10537648;28;20031;-82
2023/01/30 12:44:59;;;;;;;10.43;2.75;;;;;;;;;;10493282;23;20108;-82
2023/01/30 12:50:21;;;;;;;9.95;2.55;;;;;;;;;;10472567;28;20117;-83
2023/01/30 12:55:22;;;;;;;10.43;2.67;;;;;;;;;;10472065;28;20033;-85
2023/01/30 13:00:39;;;;;;;8.38;2.25;;;;;;;;;;10470307;28;20024;-84
2023/01/30 13:05:43;;;;;;;11.10;2.80;;;;;;;;;;10472804;28;20032;-80
2023/01/30 13:10:56;;;;;;;13.55;3.10;;;;;;;;;;10471905;28;20489;-80
2023/01/30 13:16:03;;;;;;;10.13;3.50;;;;;;;;;;10469778;28;20056;-82
2023/01/30 13:21:23;;;;;;;11.43;2.83;;;;;;;;;;10470634;28;20064;-82
2023/01/30 13:26:26;;;;;;;9.13;2.45;;;;;;;;;;10479328;28;20097;-79
2023/01/30 13:31:29;;;;;;;7.75;2.17;;;;;;;;;;10487934;28;20107;-80
2023/01/30 13:36:37;;;;;;;8.10;2.30;;;;;;;;;;10488924;28;20028;-79
2023/01/30 13:41:42;;;;;;;12.10;2.58;;;;;;;;;;10482973;28;20387;-79
2023/01/30 13:46:43;;;;;;;11.63;4.40;;;;;;;;;;10476462;28;20458;-83
2023/01/30 13:51:44;;;;;;;7.80;2.50;;;;;;;;;;10468955;28;20035;-81
2023/01/30 13:56:45;;;;;;;8.48;2.22;;;;;;;;;;10469069;28;20059;-83
2023/01/30 14:02:02;;;;;;;13.75;2.50;;;;;;;;;;10467293;28;20087;-82
2023/01/30 14:07:17;;;;;;;9.57;2.67;;;;;;;;;;10468622;28;20043;-83
2023/01/30 14:12:22;;;;;;;10.32;2.45;;;;;;;;;;10468029;28;20387;-85
2023/01/30 14:17:23;;;;;;;8.82;2.25;;;;;;;;;;10468548;28;20111;-82
2023/01/30 14:22:34;;;;;;;12.48;3.17;;;;;;;;;;10468948;28;20029;-82
2023/01/30 14:27:35;;;;;;;9.00;2.10;;;;;;;;;;10467110;28;20029;-81
2023/01/30 14:32:51;;;;;;;11.63;2.42;;;;;;;;;;10467757;28;20030;-81
2023/01/30 14:38:11;;;;;;;9.32;2.38;;;;;;;;;;10494976;28;20037;-81
2023/01/30 14:43:15;;;;;;;7.30;1.90;;;;;;;;;;10464624;28;20055;-82
2023/01/30 14:48:30;;;;;;;8.63;2.70;;;;;;;;;;10466390;28;20025;-82
2023/01/30 14:53:31;;;;;;;11.98;2.22;;;;;;;;;;10484877;28;20013;-81
2023/01/30 15:03:40;;;;;;;15.20;3.17;;;;;;;;;;10475334;28;19976;-80
2023/01/30 15:08:42;;;;;;;6.55;1.88;;;;;;;;;;10465197;28;20075;-80
2023/01/30 15:14:02;;;;;;;14.88;3.20;;;;;;;;;;10465626;28;20036;-80
2023/01/30 15:19:09;;;;;;;14.10;3.90;;;;;;;;;;10472620;28;20028;-80
2023/01/30 15:24:29;;;;;;;6.07;1.90;;;;;;;;;;10473999;28;20080;-80
2023/01/30 15:29:49;;;;;;;8.75;2.22;;;;;;;;;;10474221;28;20036;-79
2023/01/30 15:34:52;;;;;;;9.63;2.70;;;;;;;;;;10474141;28;20100;-79
2023/01/30 15:40:09;;;;;;;7.25;2.30;;;;;;;;;;10472989;28;20079;-79
2023/01/30 15:45:13;;;;;;;9.27;2.20;;;;;;;;;;10494022;28;20041;-79
2023/01/30 15:50:14;;;;;;;10.93;3.63;;;;;;;;;;10502293;28;20092;-80
2023/01/30 15:55:47;;;;;;;10.75;3.13;;;;;;;;;;10479465;28;20496;-79
2023/01/30 16:00:50;;;;;;;12.68;2.92;;;;;;;;;;10424810;28;20124;-80
2023/01/30 16:05:55;;;;;;;12.30;3.50;;;;;;;;;;10476733;28;20120;-80
2023/01/30 16:10:56;;;;;;;6.03;2.30;;;;;;;;;;10477205;28;20154;-82
2023/01/30 16:16:00;;;;;;;9.15;2.20;;;;;;;;;;10476173;28;20025;-82
2023/01/30 16:21:03;;;;;;;9.73;2.85;;;;;;;;;;10476175;28;20146;-83
2023/01/30 16:26:06;;;;;;;11.00;3.33;;;;;;;;;;10474712;28;20025;-82
2023/01/30 16:31:09;;;;;;;6.55;2.00;;;;;;;;;;10476515;28;20120;-82
2023/01/30 16:36:19;;;;;;;9.82;2.20;;;;;;;;;;10477096;28;20036;-83
2023/01/30 16:41:41;;;;;;;13.82;4.28;;;;;;;;;;10477841;28;20401;-84
2023/01/30 16:46:43;;;;;;;7.80;2.22;;;;;;;;;;10476090;28;20037;-82
2023/01/30 16:51:43;;;;;;;;;;;;;;;;;;10475255;28;20398;-82
2023/01/30 16:56:46;;;;;;;8.80;2.55;;;;;;;;;;10475639;28;19905;-81
2023/01/30 17:01:48;;;;;;;9.30;2.60;;;;;;;;;;10474953;28;20103;-81
2023/01/30 17:06:54;;;;;;;10.15;3.08;;;;;;;;;;10475086;28;20078;-82
2023/01/30 17:11:55;;;;;;;9.07;2.60;;;;;;;;;;10482745;28;20029;-83
2023/01/30 17:16:56;;;;;;;;;;;;;;;;;;10479703;28;20025;-82
2023/01/30 17:21:58;;;;;;;9.15;2.53;;;;;;;;;;10476758;28;20003;-82
2023/01/30 17:27:01;;;;;;;10.27;2.78;;;;;;;;;;10479999;28;20033;-84
2023/01/30 17:32:05;;;;;;;11.60;2.85;;;;;;;;;;10479885;28;20020;-83
2023/01/30 17:37:06;;;;;;;11.55;2.90;;;;;;;;;;10472936;28;20078;-81
2023/01/30 17:42:11;;;;;;;10.05;2.40;;;;;;;;;;10470342;28;20037;-82
2023/01/30 17:47:12;;;;;;;11.55;2.80;;;;;;;;;;10471040;28;20029;-82
2023/01/30 17:52:13;;;;;;;;;;;;;;;;;;10470340;28;20388;-81
2023/01/30 17:57:15;;;;;;;8.45;2.35;;;;;;;;;;10470958;28;19905;-82
2023/01/30 18:02:16;;;;;;;8.38;2.78;;;;;;;;;;10470739;28;20112;-82
2023/01/30 18:07:18;;;;;;;7.38;2.58;;;;;;;;;;10470366;28;20399;-82
2023/01/30 18:12:19;;;;;;;9.80;2.83;;;;;;;;;;10471766;28;20032;-82
2023/01/30 18:17:22;;;;;;;7.70;2.03;;;;;;;;;;10470154;28;20064;-79
2023/01/30 18:22:31;;;;;;;9.57;2.63;;;;;;;;;;10469556;28;20246;-88
2023/01/30 18:27:46;;;;;;;9.48;2.42;;;;;;;;;;10462644;28;20036;-86
2023/01/30 18:33:18;;;;;;;8.93;2.47;;;;;;;;;;10462347;28;20044;-86
2023/01/30 18:38:44;;;;;;;7.55;2.65;;;;;;;;;;10461092;28;20029;-85
2023/01/30 19:00:49;;;;;;;;;;;;;;;;;;10308850;28;20074;-85
2023/01/30 19:40:35;;;;;;;13.90;3.05;;;;;;;;;;10452709;28;20040;-85
2023/01/30 19:46:06;;;;;;;7.35;2.65;;;;;;;;;;10464031;28;20141;-87
2023/01/30 19:56:38;;;;;;;11.10;3.00;;;;;;;;;;10489718;28;19905;-87
2023/01/30 20:01:47;;;;;;;8.82;1.73;;;;;;;;;;10495744;28;20124;-86
2023/01/30 20:07:18;;;;;;;8.93;2.20;;;;;;;;;;10469496;28;20102;-86
2023/01/30 20:12:50;;;;;;;8.60;2.25;;;;;;;;;;10466740;28;20059;-86
